Time,TemperatureF,DewpointF,PressureIn,WindDirection,WindDirectionDegrees,WindSpeedMPH,WindSpeedGustMPH,Humidity,HourlyPrecipIn,Conditions,Clouds,dailyrainin,SoftwareType,DateUTC
2013-04-05 00:46:00,41.0,27.0,30.00,WNW,291,0.0,0.0,57,0.00,,---,0.00,VWS V14.01,2013-04-05 04:46:00,
2013-04-05 01:31:00,44.0,27.0,30.00,WNW,292,7.0,12.0,51,0.00,,---,0.00,VWS V14.01,2013-04-05 05:31:00,
2013-04-05 03:01:00,42.4,32.2,30.01,NNW,346,3.0,5.0,67,0.00,,---,0.00,VWS V14.01,2013-04-05 07:01:00,
2013-04-05 03:16:00,42.0,31.9,30.01,NNW,346,1.0,3.0,67,0.00,,---,0.00,VWS V14.01,2013-04-05 07:16:00,
2013-04-05 03:31:00,41.3,31.5,30.01,North,355,0.0,3.0,68,0.00,,---,0.00,VWS V14.01,2013-04-05 07:31:00,
2013-04-05 03:46:00,40.1,31.1,30.01,North,355,1.0,3.0,70,0.00,,---,0.00,VWS V14.01,2013-04-05 07:46:00,
2013-04-05 04:01:00,39.5,30.9,30.02,North,355,1.0,2.0,71,0.00,,---,0.00,VWS V14.01,2013-04-05 08:01:00,
2013-04-05 04:46:00,38.4,30.5,30.03,NNW,340,0.0,3.0,73,0.00,,---,0.00,VWS V14.01,2013-04-05 08:46:00,
2013-04-05 05:31:00,35.0,28.9,30.05,NNW,340,0.0,0.0,78,0.00,,---,0.00,VWS V14.01,2013-04-05 09:31:00,
2013-04-05 06:31:00,34.6,30.9,30.08,NNE,24,5.0,6.0,86,0.00,,---,0.00,VWS V14.01,2013-04-05 10:31:00,
2013-04-05 07:46:00,34.5,29.0,30.13,NE,34,5.0,7.0,80,0.00,,---,0.00,VWS V14.01,2013-04-05 11:46:00,
2013-04-05 08:31:00,36.2,28.4,30.16,NE,42,1.0,12.0,73,0.00,,---,0.00,VWS V14.01,2013-04-05 12:31:00,
2013-04-05 08:46:00,37.0,28.5,30.16,NE,44,3.0,8.0,71,0.00,,---,0.00,VWS V14.01,2013-04-05 12:46:00,
2013-04-05 09:01:00,37.5,27.5,30.17,NE,49,4.0,10.0,67,0.00,,---,0.00,VWS V14.01,2013-04-05 13:01:00,
2013-04-05 09:16:00,38.2,27.1,30.17,East,86,5.0,12.0,64,0.00,,---,0.00,VWS V14.01,2013-04-05 13:16:00,
2013-04-05 10:01:00,40.4,26.8,30.18,NNE,26,4.0,11.0,58,0.00,,---,0.00,VWS V14.01,2013-04-05 14:01:00,
2013-04-05 10:46:00,42.0,25.2,30.19,North,10,3.0,10.0,51,0.00,,---,0.00,VWS V14.01,2013-04-05 14:46:00,
2013-04-05 11:16:00,43.5,25.1,30.20,North,5,8.0,10.0,48,0.00,,---,0.00,VWS V14.01,2013-04-05 15:16:00,
2013-04-05 11:31:00,43.5,24.6,30.20,NNW,345,3.0,13.0,47,0.00,,---,0.00,VWS V14.01,2013-04-05 15:31:00,
2013-04-05 11:46:00,44.2,24.8,30.20,NNE,31,3.0,13.0,46,0.00,,---,0.00,VWS V14.01,2013-04-05 15:46:00,
2013-04-05 12:01:00,44.6,25.1,30.20,North,5,6.0,11.0,46,0.00,,---,0.00,VWS V14.01,2013-04-05 16:01:00,
2013-04-05 12:16:00,44.3,23.8,30.20,NNE,21,6.0,11.0,44,0.00,,---,0.00,VWS V14.01,2013-04-05 16:16:00,
2013-04-05 13:01:00,46.0,22.5,30.20,NE,42,4.0,10.0,39,0.00,,---,0.00,VWS V14.01,2013-04-05 17:01:00,
2013-04-05 13:16:00,46.4,20.9,30.20,North,360,4.0,12.0,36,0.00,,---,0.00,VWS V14.01,2013-04-05 17:16:00,
2013-04-05 13:31:00,46.8,19.9,30.20,NNE,32,2.0,10.0,34,0.00,,---,0.00,VWS V14.01,2013-04-05 17:31:00,
2013-04-05 14:01:00,47.8,21.5,30.18,NE,53,4.0,11.0,35,0.00,,---,0.00,VWS V14.01,2013-04-05 18:01:00,
2013-04-05 14:16:00,46.6,24.2,30.18,WNW,282,7.0,15.0,41,0.00,,---,0.00,VWS V14.01,2013-04-05 18:16:00,
2013-04-05 15:01:00,45.5,23.2,30.18,NW,304,7.0,14.0,41,0.00,,---,0.00,VWS V14.01,2013-04-05 19:01:00,
2013-04-05 15:16:00,45.3,21.8,30.18,West,279,11.0,15.0,39,0.00,,---,0.00,VWS V14.01,2013-04-05 19:16:00,
2013-04-05 16:16:00,43.5,22.5,30.17,NW,311,3.0,12.0,43,0.00,,---,0.00,VWS V14.01,2013-04-05 20:16:00,
2013-04-05 16:31:00,43.1,22.7,30.17,NNE,19,5.0,11.0,44,0.00,,---,0.00,VWS V14.01,2013-04-05 20:31:00,
2013-04-05 16:46:00,43.2,22.8,30.16,NNE,15,3.0,11.0,44,0.00,,---,0.00,VWS V14.01,2013-04-05 20:46:00,
2013-04-05 17:01:00,43.1,24.3,30.17,NW,314,7.0,11.0,47,0.00,,---,0.00,VWS V14.01,2013-04-05 21:01:00,
2013-04-05 17:16:00,41.9,22.6,30.17,WNW,290,7.0,14.0,46,0.00,,---,0.00,VWS V14.01,2013-04-05 21:16:00,
2013-04-05 17:31:00,41.8,23.1,30.17,WNW,296,10.0,13.0,47,0.00,,---,0.00,VWS V14.01,2013-04-05 21:31:00,
2013-04-05 18:01:00,40.8,23.6,30.18,NW,308,7.0,11.0,50,0.00,,---,0.00,VWS V14.01,2013-04-05 22:01:00,
2013-04-05 18:16:00,40.6,23.9,30.18,NNW,336,5.0,11.0,51,0.00,,---,0.00,VWS V14.01,2013-04-05 22:16:00,
2013-04-05 19:16:00,37.0,24.4,30.21,WNW,295,6.0,11.0,60,0.00,,---,0.00,VWS V14.01,2013-04-05 23:16:00,
2013-04-05 19:46:00,35.3,24.7,30.21,NNW,344,5.0,11.0,65,0.00,,---,0.00,VWS V14.01,2013-04-05 23:46:00,
2013-04-05 20:01:00,34.7,24.5,30.21,NW,317,1.0,7.0,66,0.00,,---,0.00,VWS V14.01,2013-04-06 00:01:00,
2013-04-05 21:46:00,31.5,25.4,30.23,North,355,1.0,3.0,78,0.00,,---,0.00,VWS V14.01,2013-04-06 01:46:00,
2013-04-05 22:31:00,31.5,26.0,30.23,NNE,14,0.0,5.0,80,0.00,,---,0.00,VWS V14.01,2013-04-06 02:31:00,
2013-04-05 22:46:00,31.1,26.0,30.23,NNE,14,0.0,2.0,81,0.00,,---,0.00,VWS V14.01,2013-04-06 02:46:00,
2013-04-05 23:01:00,30.5,25.4,30.22,NNE,14,0.0,1.0,81,0.00,,---,0.00,VWS V14.01,2013-04-06 03:01:00,
2013-04-05 23:31:00,30.4,25.9,30.20,NNE,14,0.0,3.0,83,0.00,,---,0.00,VWS V14.01,2013-04-06 03:31:00,
2013-04-05 23:46:00,30.3,25.8,30.20,NNE,14,0.0,1.0,83,0.00,,---,0.00,VWS V14.01,2013-04-06 03:46:00,